Latest Coastal Weather Observations for Townsville

IDQ60701

Issued at 4:12 pm EST Tuesday 28 March 2017 (issued every 10 minutes, with the page automatically refreshed every 10 minutes)

About coastal observations | Map of coastal stations | Coastal observations for QLD | Marine services | Other Formats
Station Details ID: 032040 Name: TOWNSVILLE AERO Lat: -19.25 Lon: 146.77 Height: 4.34 m
Data from the previous 72 hours. | See also: Recent months at Townsville
Date/Time
EST
Temp
°C
Wind Pressure Rain since
9am
mm
Weather Cloud Vis
km
Sea
Height
m
Swell
Dir  Spd
kts
Gust
kts
hPa Trend Height
m
Period
s
Dir
28/04:09pm 30.6 WSW 17 27 996.7 - 0.2 - Partly cloudy 10 - - - -
28/04:00pm 30.9 WSW 15 20 996.7 - 0.2 - Partly cloudy 10 - - - -
28/03:30pm 30.3 W 17 22 996.7 - 0.2 - Partly cloudy 10 - - - -
28/03:00pm 30.4 W 15 21 996.7 F 0.2 - Cloudy 10 - - - -
28/02:30pm 29.9 W 15 19 996.7 - 0.2 - Partly cloudy 10 - - - -
28/02:12pm 29.6 WSW 17 27 997.0 - 0.2 - Partly cloudy 10 - - - -
28/02:00pm 29.5 WSW 17 25 997.5 - 0.2 - Partly cloudy 10 - - - -
28/01:30pm 28.2 WSW 15 19 997.8 - 0.2 - Partly cloudy 10 - - - -
28/01:00pm 28.0 WSW 16 22 998.1 - 0.0 - Partly cloudy 10 - - - -
28/12:30pm 28.4 W 17 25 998.4 - 0.0 - Partly cloudy 10 - - - -
28/12:00pm 29.0 WSW 17 23 999.2 F 0.0 Showers Cloudy 10 - - - -
28/11:30am 28.5 WSW 16 19 999.5 - 0.0 - Partly cloudy 10 - - - -
28/11:00am 28.5 WSW 15 22 1000.0 - 0.0 - Partly cloudy 10 - - - -
28/10:30am 28.7 WSW 17 21 1000.5 - 0.0 - - 10 - - - -
28/10:00am 28.4 WSW 16 20 1000.8 - 0.0 - - 10 - - - -
28/09:30am 28.6 SW 18 24 1001.2 - 0.0 - Partly cloudy 10 - - - -
28/09:00am 28.1 SW 15 24 1001.2 F 0.0 - Cloudy 10 - - - -
28/08:30am 27.7 WSW 12 18 1000.9 - 0.0 - - 10 - - - -
28/08:00am 27.8 SW 12 17 1001.1 - 0.0 - Partly cloudy 10 - - - -
28/07:30am 27.7 WSW 12 17 1001.0 - 0.0 - Partly cloudy 10 - - - -
28/07:00am 27.6 SW 13 18 1001.2 - 0.0 - Partly cloudy 10 - - - -
28/06:30am 27.7 SW 12 18 1000.8 - 0.0 - Partly cloudy 10 - - - -
28/06:00am 27.5 WSW 14 19 1000.3 F 0.0 Showers Cloudy 10 - - - -
28/05:30am 28.6 SW 15 26 1000.4 - 0.0 - - 10 - - - -
28/05:25am 28.6 SW 15 26 1000.4 - 0.0 - - 10 - - - -
28/05:00am 28.7 SW 13 21 1000.2 - 0.0 - - 10 - - - -
28/04:30am 29.1 SW 13 21 1000.4 - 0.0 - Partly cloudy 10 - - - -
28/04:00am 29.2 SW 15 21 1000.5 - 0.0 - - 10 - - - -
28/03:30am 29.3 SW 14 20 1000.5 - 0.0 - - 10 - - - -
28/03:16am 29.4 SW 15 25 1000.5 - 0.0 - - 10 - - - -
28/03:00am 29.5 SW 16 22 1000.7 F 0.0 - Cloudy 10 - - - -
28/02:30am 29.7 SW 17 27 1001.0 - 0.0 - - 10 - - - -
28/02:14am 29.7 SW 15 25 1001.0 - 0.0 - - 10 - - - -
28/02:00am 29.8 SW 17 25 1001.2 - 0.0 - - 10 - - - -
28/01:30am 30.1 SW 19 30 1001.7 - 0.0 - Partly cloudy 10 - - - -
28/01:26am 30.2 SW 15 26 1001.8 - 0.0 - Partly cloudy 10 - - - -
28/01:00am 30.1 SW 15 22 1001.8 - 0.0 - - 10 - - - -
28/12:30am 30.4 SW 15 27 1002.2 - 0.0 - - 10 - - - -
28/12:18am 30.3 SW 17 27 1002.2 - 0.0 - - 10 - - - -
28/12:00am 30.4 SW 17 22 1002.5 F 0.0 - Cloudy 10 - - - -
 
Date/Time
EST
Temp
°C
Wind Pressure Rain since
9am
mm
Weather Cloud Vis
km
Sea
Height
m
Swell
Dir  Spd
kts
Gust
kts
hPa Trend Height
m
Period
s
Dir
27/11:30pm 30.3 SW 15 23 1003.1 - 0.0 - Partly cloudy 10 - - - -
27/11:00pm 30.4 SW 13 19 1003.5 - 0.0 - Partly cloudy 10 - - - -
27/10:32pm 30.4 SW 16 28 1003.7 - 0.0 - Partly cloudy 10 - - - -
27/10:30pm 30.5 SW 16 22 1003.7 - 0.0 - Partly cloudy 10 - - - -
27/10:10pm 30.5 SW 16 26 1003.8 - 0.0 - Partly cloudy 10 - - - -
27/10:00pm 30.5 SW 14 23 1003.9 - 0.0 - Partly cloudy 10 - - - -
27/09:41pm 30.7 SW 15 28 1004.0 - 0.0 - Partly cloudy 10 - - - -
27/09:30pm 30.7 SW 13 17 1004.0 - 0.0 - Partly cloudy 10 - - - -
27/09:00pm 30.6 SW 16 23 1003.7 F 0.0 - Cloudy 10 - - - -
27/08:50pm 30.3 SW 17 27 1003.8 - 0.0 - Partly cloudy 10 - - - -
27/08:30pm 30.1 SW 15 24 1004.0 - 0.0 - Partly cloudy 10 - - - -
27/08:00pm 29.7 WSW 14 18 1003.9 - 0.0 - Partly cloudy 10 - - - -
27/07:30pm 30.6 SW 18 29 1003.6 - 0.0 - Partly cloudy 10 - - - -
27/07:20pm 30.7 SW 19 30 1003.6 - 0.0 - Partly cloudy 10 - - - -
27/07:19pm 30.9 SW 19 28 1003.7 - 0.0 - Partly cloudy 10 - - - -
27/07:00pm 30.8 SSW 14 18 1003.5 - 0.0 - Partly cloudy 10 - - - -
27/06:30pm 31.0 SW 11 15 1003.2 - 0.0 - Partly cloudy 10 - - - -
27/06:00pm 30.9 SW 13 18 1002.8 F 0.0 - Cloudy 10 - - - -
27/05:30pm 31.1 SW 15 22 1002.5 - 0.0 - - 10 - - - -
27/05:00pm 30.9 WSW 13 17 1002.1 - 0.0 - - 10 - - - -
27/04:30pm 31.2 SW 13 19 1002.2 - 0.0 - Partly cloudy 10 - - - -
27/04:00pm 31.3 SW 12 18 1002.1 - 0.0 - Partly cloudy 10 - - - -
27/03:30pm 31.4 SW 12 18 1002.3 - 0.0 - - 10 - - - -
27/03:00pm 31.4 SW 14 19 1002.6 F 0.0 - Partly cloudy 10 - - - -
27/02:30pm 31.5 SW 14 20 1003.0 - 0.0 - Partly cloudy 10 - - - -
27/02:00pm 31.2 SW 16 22 1003.0 - 0.0 - Partly cloudy 10 - - - -
27/01:30pm 31.3 SSW 15 20 1003.3 - 0.0 - - 10 - - - -
27/01:00pm 31.0 SSW 15 18 1004.0 - 0.0 - Partly cloudy 10 - - - -
27/12:30pm 31.5 SW 15 21 1004.4 - 0.0 - - 10 - - - -
27/12:00pm 31.0 SSW 20 29 1004.9 F 0.0 - Mostly clear 10 - - - -
27/11:30am 31.3 SSW 19 25 1005.3 - 0.0 - Mostly clear 10 - - - -
27/11:00am 31.8 SSW 19 25 1006.0 - 0.0 - Mostly clear 10 - - - -
27/10:30am 31.3 SSW 18 24 1006.0 - 0.0 - Mostly clear 10 - - - -
27/10:00am 30.5 SSW 18 26 1006.2 - 0.0 - Mostly clear 10 - - - -
27/09:30am 29.9 SSW 18 24 1006.3 - 0.0 - Mostly clear 10 - - - -
27/09:00am 29.5 SSW 16 21 1006.6 F 0.0 - Mostly clear 10 - - - -
27/08:30am 28.6 SW 11 16 1006.6 - 0.0 - Mostly clear 10 - - - -
27/08:00am 27.8 SW 17 20 1006.5 - 0.0 - Mostly clear 10 - - - -
27/07:30am 27.4 SSW 18 20 1006.4 - 0.0 - Mostly clear 10 - - - -
27/07:00am 27.3 SSW 14 17 1006.3 - 0.0 - Mostly clear 10 - - - -
27/06:30am 27.2 SSW 14 18 1005.9 - 0.0 - Mostly clear 10 - - - -
27/06:00am 27.4 SSW 15 17 1005.7 F 0.0 - Mostly clear 10 - - - -
27/05:30am 27.5 SSW 12 16 1005.5 - 0.0 - - 10 - - - -
27/05:00am 27.8 SW 8 11 1005.3 - 0.0 - Partly cloudy 10 - - - -
27/04:30am 27.7 SSW 16 22 1005.2 - 0.0 - Partly cloudy 10 - - - -
27/04:00am 28.0 SSW 16 21 1005.4 - 0.0 - Cloudy 10 - - - -
27/03:30am 28.0 SSW 16 21 1005.4 - 0.0 - Partly cloudy 10 - - - -
27/03:00am 27.9 SSW 15 18 1005.2 F 0.0 - Mostly cloudy 10 - - - -
27/02:30am 28.3 SSW 12 18 1005.6 - 0.0 - Cloudy 10 - - - -
27/02:00am 28.4 SSW 11 16 1006.1 - 0.0 - Cloudy 10 - - - -
27/01:30am 28.7 SSW 13 16 1006.2 - 0.0 - Partly cloudy 10 - - - -
27/01:00am 28.7 SW 12 14 1006.6 - 0.0 - Partly cloudy 10 - - - -
27/12:30am 29.1 SW 11 14 1007.2 - 0.0 - Cloudy 10 - - - -
27/12:00am 29.0 SSW 12 15 1007.6 F 0.0 - Mostly cloudy 10 - - - -
 
Date/Time
EST
Temp
°C
Wind Pressure Rain since
9am
mm
Weather Cloud Vis
km
Sea
Height
m
Swell
Dir  Spd
kts
Gust
kts
hPa Trend Height
m
Period
s
Dir
26/11:30pm 29.3 SSW 11 14 1007.8 - 0.0 - Cloudy 10 - - - -
26/11:00pm 29.3 SSW 9 12 1007.7 - 0.0 - Partly cloudy 10 - - - -
26/10:30pm 29.4 SSW 8 10 1007.9 - 0.0 - Partly cloudy 10 - - - -
26/10:00pm 29.2 SSW 14 17 1007.8 - 0.0 - - 10 - - - -
26/09:30pm 29.8 SSW 13 17 1007.6 - 0.0 - - 10 - - - -
26/09:00pm 30.0 SSW 13 19 1007.8 R 0.0 - Mostly cloudy 10 - - - -
26/08:30pm 30.0 SW 11 14 1007.2 - 0.0 - Partly cloudy 10 - - - -
26/08:00pm 30.1 SSW 11 15 1006.8 - 0.0 - - 10 - - - -
26/07:30pm 30.0 SSW 11 15 1006.6 - 0.0 - - 10 - - - -
26/07:00pm 30.0 SW 7 9 1006.3 - 0.0 - Partly cloudy 10 - - - -
26/06:30pm 30.4 SW 8 11 1006.1 - 0.0 - - 10 - - - -
26/06:00pm 30.3 SSW 11 15 1005.7 R 0.0 - - 10 - - - -
26/05:30pm 30.6 SSW 11 14 1005.4 - 0.0 - - 10 - - - -
26/05:00pm 30.8 S 14 17 1005.0 - 0.0 - Partly cloudy 10 - - - -
26/04:30pm 31.2 SSW 14 18 1004.5 - 0.0 - - 10 - - - -
26/04:00pm 31.3 S 12 16 1004.8 - 0.0 - - 10 - - - -
26/03:30pm 31.3 SSW 12 15 1004.7 - 0.0 - - 10 - - - -
26/03:00pm 31.5 SSW 12 18 1004.9 F 0.0 - Mostly clear 10 - - - -
26/02:30pm 31.6 SSW 13 18 1005.2 - 0.0 - - 10 - - - -
26/02:00pm 31.3 SSW 13 17 1005.6 - 0.0 - Mostly clear 10 - - - -
26/01:30pm 31.0 SSW 12 20 1006.0 - 0.0 - Mostly clear 10 - - - -
26/01:00pm 30.9 SSW 15 19 1006.5 - 0.0 - Mostly clear 10 - - - -
26/12:30pm 30.6 SW 16 20 1007.2 - 0.0 - Mostly clear 10 - - - -
26/12:00pm 30.8 SSW 15 21 1007.9 F 0.0 - Mostly clear 10 - - - -
26/11:30am 30.3 SSW 15 18 1008.4 - 0.0 - Mostly clear 10 - - - -
26/11:00am 29.7 SW 13 17 1009.0 - 0.0 - Mostly clear 10 - - - -
26/10:30am 29.6 SSW 13 16 1009.3 - 0.0 - Mostly clear 10 - - - -
26/10:00am 28.7 SSW 17 20 1009.3 - 0.0 - Mostly clear 10 - - - -
26/09:30am 28.1 SSW 17 21 1009.2 - 0.0 - Mostly clear 10 - - - -
26/09:00am 27.7 SW 15 20 1009.5 F 0.2 - Mostly clear 10 - - - -
26/08:30am 27.3 SSW 11 15 1009.5 - 0.2 - Mostly clear 10 - - - -
26/08:00am 26.9 SW 9 13 1009.1 - 0.2 - Mostly clear 10 - - - -
26/07:30am 26.3 SW 10 13 1008.8 - 0.2 - Mostly clear 10 - - - -
26/07:00am 26.0 SW 9 10 1008.8 - 0.2 - Mostly clear 10 - - - -
26/06:30am 25.6 SSW 9 12 1008.4 - 0.2 - Mostly clear 10 - - - -
26/06:00am 24.9 SSW 5 6 1008.0 R 0.2 - Mostly clear 10 - - - -
26/05:30am 25.0 W 6 7 1007.7 - 0.2 - - 10 - - - -
26/05:00am 25.6 WSW 1 5 1007.7 - 0.2 - - 10 - - - -
26/04:30am 25.3 SW 1 4 1007.6 - 0.2 - - 10 - - - -
26/04:00am 26.0 S 4 6 1007.5 - 0.2 - - 10 - - - -
26/03:30am 26.4 W 5 6 1007.2 - 0.2 - - 10 - - - -
26/03:00am 26.5 S 7 9 1007.3 F 0.2 - - 10 - - - -
26/02:30am 27.0 S 5 6 1007.3 - 0.2 - - 10 - - - -
26/02:00am 27.0 SSW 9 10 1007.5 - 0.2 - - 10 - - - -
26/01:30am 26.4 SSW 5 5 1007.8 - 0.2 - - 10 - - - -
26/01:00am 26.2 SSE 5 5 1008.1 - 0.2 - - 10 - - - -
26/12:30am 26.2 SSE 1 5 1008.6 - 0.2 - - 10 - - - -
26/12:00am 26.9 WSW 4 5 1008.9 F 0.2 - - 10 - - - -
 
Date/Time
EST
Temp
°C
Wind Pressure Rain since
9am
mm
Weather Cloud Vis
km
Sea
Height
m
Swell
Dir  Spd
kts
Gust
kts
hPa Trend Height
m
Period
s
Dir
25/11:30pm 26.9 WSW 4 5 1009.2 - 0.2 - - 10 - - - -
25/11:00pm 27.3 SW 6 6 1009.6 - 0.2 - - 10 - - - -
25/10:30pm 27.6 WSW 5 6 1009.9 - 0.2 - - 10 - - - -
25/10:00pm 27.6 WSW 4 5 1010.0 - 0.2 - Partly cloudy 10 - - - -
25/09:30pm 28.4 SE 4 6 1009.8 - 0.2 - Partly cloudy 10 - - - -
25/09:00pm 28.4 SE 5 7 1009.6 R 0.2 - Mostly clear 10 - - - -
25/08:30pm 28.1 SE 5 6 1009.2 - 0.2 - - 10 - - - -
25/08:00pm 27.9 E 5 6 1009.0 - 0.2 - - 10 - - - -
25/07:30pm 27.9 ENE 5 7 1008.5 - 0.2 - - 10 - - - -
25/07:00pm 28.0 ENE 8 10 1008.2 - 0.2 - Partly cloudy 10 - - - -
25/06:30pm 28.4 E 5 7 1007.9 - 0.2 - Partly cloudy 10 - - - -
25/06:00pm 29.1 ENE 7 10 1007.4 R 0.2 - Cloudy 10 - - - -
25/05:30pm 28.1 SE 11 15 1007.1 - 0.2 - Partly cloudy 10 - - - -
25/05:00pm 29.9 ENE 14 19 1006.9 - 0.2 - Partly cloudy 10 - - - -
25/04:30pm 30.1 ENE 14 18 1006.5 - 0.2 - Partly cloudy 10 - - - -
25/04:26pm 30.2 ENE 15 18 1006.6 - 0.2 - Partly cloudy 10 - - - -

Other Formats:

Comma delimited format used in spreadsheet applications
http://www.bom.gov.au/fwo/IDQ60701/IDQ60701.94294.axf

JavaScript Object Notation format (JSON) in row-major order
http://www.bom.gov.au/fwo/IDQ60701/IDQ60701.94294.json